Time;durP1;ratioP1;P1;durP2;ratioP2;P2;SDS_P1;SDS_P2;PMS_P1;PMS_P2;Temp;Humidity;BMP_temperature;BMP_pressure;BME280_temperature;BME280_humidity;BME280_pressure;Samples;Min_cycle;Max_cycle;Signal;HPM_P1;HPM_P2
2021/07/14 00:01:19;;;;;;;1.42;1.27;;;18.50;99.90;;;;;;5023936;28;20733;-76
2021/07/14 00:03:46;;;;;;;1.30;1.20;;;18.50;99.90;;;;;;5022491;28;20220;-76
2021/07/14 00:06:13;;;;;;;1.63;1.10;;;18.50;99.90;;;;;;5024477;28;20228;-77
2021/07/14 00:08:40;;;;;;;1.30;1.20;;;18.50;99.90;;;;;;5018626;28;20223;-76
2021/07/14 00:11:08;;;;;;;1.15;1.08;;;18.40;99.90;;;;;;5022545;28;20223;-76
2021/07/14 00:13:46;;;;;;;1.40;1.30;;;18.40;99.90;;;;;;5019705;28;20226;-77
2021/07/14 00:24:28;;;;;;;1.60;1.50;;;18.30;99.90;;;;;;5020605;28;20227;-77
2021/07/14 00:26:55;;;;;;;1.00;1.00;;;18.30;99.90;;;;;;5016780;28;20701;-76
2021/07/14 00:29:22;;;;;;;2.10;1.13;;;18.30;99.90;;;;;;5023300;28;20226;-76
2021/07/14 00:31:49;;;;;;;1.30;1.20;;;18.30;99.90;;;;;;5027164;28;20234;-77
2021/07/14 00:34:17;;;;;;;1.30;1.20;;;18.30;99.90;;;;;;5016879;28;20647;-76
2021/07/14 00:36:44;;;;;;;2.40;1.50;;;18.40;99.90;;;;;;5026624;28;20234;-76
2021/07/14 00:39:11;;;;;;;1.50;1.40;;;18.40;99.90;;;;;;5021052;28;20222;-77
2021/07/14 00:41:38;;;;;;;1.30;1.20;;;18.40;99.90;;;;;;5027713;28;20231;-76
2021/07/14 00:44:06;;;;;;;1.15;1.10;;;18.40;99.90;;;;;;5026884;28;20227;-76
2021/07/14 00:46:33;;;;;;;1.10;1.10;;;18.40;99.90;;;;;;5021246;28;20281;-76
2021/07/14 00:49:02;;;;;;;1.40;1.30;;;18.40;99.90;;;;;;5017294;28;20216;-76
2021/07/14 00:51:31;;;;;;;1.77;1.05;;;18.30;99.90;;;;;;5027152;28;20227;-76
2021/07/14 00:53:59;;;;;;;1.38;1.20;;;18.30;99.90;;;;;;5017666;28;20275;-76
2021/07/14 00:56:27;;;;;;;1.15;1.10;;;18.20;99.90;;;;;;5019185;28;20227;-76
2021/07/14 00:58:55;;;;;;;1.40;1.25;;;18.30;99.90;;;;;;5019266;28;20550;-76
2021/07/14 01:01:22;;;;;;;1.63;1.27;;;18.30;99.90;;;;;;5027296;28;20226;-76
2021/07/14 01:04:00;;;;;;;1.05;1.05;;;18.30;99.90;;;;;;5022192;28;20277;-76
2021/07/14 01:06:35;;;;;;;1.33;1.23;;;18.20;99.90;;;;;;5029439;28;20276;-76
2021/07/14 01:09:07;;;;;;;1.13;1.13;;;18.10;99.90;;;;;;5014042;28;20231;-76
2021/07/14 01:11:38;;;;;;;3.45;1.60;;;18.10;99.90;;;;;;5019339;28;20693;-76
2021/07/14 01:14:09;;;;;;;2.28;1.30;;;18.10;99.90;;;;;;5016515;28;20232;-77
2021/07/14 01:16:41;;;;;;;1.55;1.42;;;18.20;99.90;;;;;;5015908;28;20226;-76
2021/07/14 01:19:44;;;;;;;1.23;1.13;;;18.20;99.90;;;;;;5013974;28;20802;-76
2021/07/14 01:22:23;;;;;;;1.50;1.40;;;18.20;99.90;;;;;;5018288;28;20646;-76
2021/07/14 01:24:57;;;;;;;1.35;1.20;;;18.20;99.90;;;;;;5021871;28;20226;-76
2021/07/14 01:27:34;;;;;;;1.60;1.50;;;18.00;99.90;;;;;;5022220;28;20227;-76
2021/07/14 01:30:08;;;;;;;1.42;1.33;;;17.80;99.90;;;;;;5022247;28;20228;-77
2021/07/14 01:32:39;;;;;;;1.50;1.40;;;17.70;99.90;;;;;;5024228;28;20223;-76
2021/07/14 01:35:11;;;;;;;1.70;1.60;;;17.80;99.90;;;;;;5026114;28;20601;-76
2021/07/14 01:37:40;;;;;;;2.70;1.70;;;17.80;99.90;;;;;;5020451;28;20306;-76
2021/07/14 01:40:09;;;;;;;1.83;1.73;;;17.70;99.90;;;;;;5021397;28;20285;-76
2021/07/14 01:42:39;;;;;;;2.10;1.70;;;17.70;99.90;;;;;;5021468;28;20281;-76
2021/07/14 01:45:08;;;;;;;1.67;1.50;;;17.80;99.90;;;;;;5027087;28;20227;-76
2021/07/14 01:47:36;;;;;;;1.98;1.65;;;17.90;99.90;;;;;;5021197;28;20223;-76
2021/07/14 01:50:05;;;;;;;1.70;1.60;;;18.10;99.90;;;;;;5027133;28;20727;-75
2021/07/14 01:52:33;;;;;;;1.40;1.33;;;18.10;99.90;;;;;;5026068;28;20373;-76
2021/07/14 01:55:05;;;;;;;2.17;1.40;;;18.10;99.90;;;;;;5021572;28;20215;-77
2021/07/14 01:57:35;;;;;;;1.50;1.40;;;18.10;99.90;;;;;;5033690;28;20724;-76
2021/07/14 02:00:06;;;;;;;1.15;1.15;;;18.10;99.90;;;;;;5007053;28;20715;-76
2021/07/14 02:02:35;;;;;;;2.42;1.40;;;18.10;99.90;;;;;;5011965;28;20749;-76
2021/07/14 02:05:02;;;;;;;1.23;1.23;;;18.10;99.90;;;;;;5012983;28;22549;-77
2021/07/14 02:07:30;;;;;;;1.92;1.42;;;18.10;99.90;;;;;;5017876;28;20301;-76
2021/07/14 02:09:58;;;;;;;1.33;1.23;;;18.10;99.90;;;;;;5021155;28;20232;-76
2021/07/14 02:12:27;;;;;;;1.50;1.40;;;18.00;99.90;;;;;;5019554;28;20227;-76
2021/07/14 02:14:58;;;;;;;1.40;1.30;;;17.70;99.90;;;;;;5021795;28;20226;-76
2021/07/14 02:17:31;;;;;;;1.63;1.52;;;17.50;99.90;;;;;;5027402;28;20223;-76
2021/07/14 02:20:02;;;;;;;1.48;1.38;;;17.60;99.90;;;;;;5020214;28;20223;-76
2021/07/14 02:22:30;;;;;;;1.40;1.30;;;17.60;99.90;;;;;;5034354;28;20285;-76
2021/07/14 02:24:58;;;;;;;1.35;1.25;;;17.80;99.90;;;;;;5025582;28;20235;-76
2021/07/14 02:27:25;;;;;;;1.48;1.38;;;17.80;99.90;;;;;;5026028;28;20730;-76
2021/07/14 02:29:52;;;;;;;1.60;1.50;;;17.90;99.90;;;;;;5025695;28;20277;-76
2021/07/14 02:32:21;;;;;;;1.30;1.23;;;17.90;99.90;;;;;;5029174;28;20240;-76
2021/07/14 02:34:52;;;;;;;2.00;1.70;;;17.80;99.90;;;;;;5020955;28;20274;-76
2021/07/14 02:37:29;;;;;;;1.52;1.42;;;17.70;99.90;;;;;;5029083;28;20230;-76
2021/07/14 02:40:00;;;;;;;1.70;1.60;;;17.70;99.90;;;;;;5021203;28;20219;-76
2021/07/14 02:42:31;;;;;;;1.75;1.65;;;17.80;99.90;;;;;;5031572;28;20227;-76
2021/07/14 02:45:01;;;;;;;1.65;1.50;;;17.80;99.90;;;;;;5024098;28;20669;-76
2021/07/14 02:47:30;;;;;;;1.45;1.35;;;17.70;99.90;;;;;;5038712;28;20224;-75
2021/07/14 02:50:00;;;;;;;1.55;1.25;;;17.80;99.90;;;;;;5024066;28;20223;-77
2021/07/14 02:52:30;;;;;;;1.90;1.80;;;17.80;99.90;;;;;;5021666;28;20290;-76
2021/07/14 02:54:58;;;;;;;1.40;1.30;;;17.90;99.90;;;;;;5029696;28;20231;-75
2021/07/14 02:57:27;;;;;;;1.83;1.73;;;17.90;99.90;;;;;;5025315;28;20705;-76
2021/07/14 02:59:56;;;;;;;1.75;1.65;;;17.80;99.90;;;;;;5024384;28;20226;-76
2021/07/14 03:02:23;;;;;;;1.90;1.75;;;17.80;99.90;;;;;;5032216;28;20280;-76
2021/07/14 03:04:53;;;;;;;1.65;1.55;;;17.70;99.90;;;;;;5029793;28;20223;-76
2021/07/14 03:07:26;;;;;;;1.88;1.77;;;17.70;99.90;;;;;;5022463;28;20706;-76
2021/07/14 03:09:54;;;;;;;1.58;1.48;;;17.70;99.90;;;;;;5027014;28;20599;-76
2021/07/14 03:12:23;;;;;;;1.65;1.55;;;17.80;99.90;;;;;;5025557;28;20322;-76
2021/07/14 03:14:52;;;;;;;1.38;1.35;;;17.80;99.90;;;;;;5024552;28;20633;-76
2021/07/14 03:17:21;;;;;;;1.70;1.60;;;17.80;99.90;;;;;;5026695;28;20227;-76
2021/07/14 03:19:50;;;;;;;1.55;1.45;;;17.80;99.90;;;;;;5021855;28;20219;-76
2021/07/14 03:22:18;;;;;;;1.52;1.42;;;17.80;99.90;;;;;;5021381;28;20231;-76
2021/07/14 03:24:47;;;;;;;1.33;1.20;;;17.80;99.90;;;;;;5024416;28;20274;-76
2021/07/14 03:27:14;;;;;;;1.83;1.30;;;17.80;99.90;;;;;;5025682;28;20277;-76
2021/07/14 03:29:43;;;;;;;1.70;1.60;;;17.80;99.90;;;;;;5023987;28;20227;-76
2021/07/14 03:32:10;;;;;;;1.55;1.45;;;17.70;99.90;;;;;;5024790;28;20235;-76
2021/07/14 03:34:38;;;;;;;1.63;1.52;;;17.70;99.90;;;;;;5025927;28;20230;-76
2021/07/14 03:37:06;;;;;;;1.42;1.35;;;17.70;99.90;;;;;;5023803;28;20235;-76
2021/07/14 03:39:34;;;;;;;1.77;1.65;;;17.70;99.90;;;;;;5031904;28;20281;-76
2021/07/14 03:42:04;;;;;;;1.65;1.20;;;17.70;99.90;;;;;;5023409;28;20231;-76
2021/07/14 03:44:32;;;;;;;2.33;1.20;;;17.70;99.90;;;;;;5022636;28;20216;-76
2021/07/14 03:47:01;;;;;;;1.55;1.45;;;17.70;99.90;;;;;;5023513;28;20227;-76
2021/07/14 03:49:28;;;;;;;1.48;1.35;;;17.70;99.90;;;;;;5021442;28;20216;-75
2021/07/14 03:51:56;;;;;;;1.17;1.17;;;17.70;99.90;;;;;;5021696;28;20227;-76
2021/07/14 03:54:24;;;;;;;1.40;1.30;;;17.70;99.90;;;;;;5021731;28;20235;-76
2021/07/14 03:56:51;;;;;;;1.52;1.42;;;17.80;99.90;;;;;;5027493;28;20709;-76
2021/07/14 03:59:20;;;;;;;1.52;1.42;;;17.80;99.90;;;;;;5022008;28;20693;-76
2021/07/14 04:01:49;;;;;;;1.48;1.38;;;17.90;99.90;;;;;;5020817;28;20694;-76
2021/07/14 04:04:16;;;;;;;1.27;1.25;;;17.80;99.90;;;;;;5025766;28;20223;-76
2021/07/14 04:06:46;;;;;;;1.40;1.30;;;17.80;99.90;;;;;;5025601;28;20760;-76
2021/07/14 04:09:24;;;;;;;1.30;1.23;;;17.80;99.90;;;;;;5025010;28;20637;-76
2021/07/14 04:11:54;;;;;;;1.50;1.35;;;17.90;99.90;;;;;;5028176;28;20238;-76
2021/07/14 04:14:23;;;;;;;1.42;1.33;;;17.90;99.90;;;;;;5022228;28;20223;-76
2021/07/14 04:16:50;;;;;;;1.45;1.35;;;17.80;99.90;;;;;;5021556;28;20219;-76
2021/07/14 04:19:17;;;;;;;1.50;1.40;;;17.80;99.90;;;;;;5024082;28;20219;-76
2021/07/14 04:21:45;;;;;;;1.77;1.67;;;17.70;99.90;;;;;;5025922;28;20231;-75
2021/07/14 04:24:12;;;;;;;1.88;1.50;;;17.60;99.90;;;;;;5022879;28;20220;-76
2021/07/14 04:26:39;;;;;;;1.67;1.30;;;17.60;99.90;;;;;;5024294;28;20289;-75
2021/07/14 04:29:06;;;;;;;1.88;1.77;;;17.60;99.90;;;;;;5027708;28;20220;-75
2021/07/14 04:31:37;;;;;;;1.52;1.42;;;17.70;99.90;;;;;;5023162;28;20673;-76
2021/07/14 04:34:05;;;;;;;1.90;1.20;;;17.80;99.90;;;;;;5020316;28;20238;-76
2021/07/14 04:36:32;;;;;;;1.73;1.50;;;17.90;99.90;;;;;;5025409;28;20220;-76
2021/07/14 04:38:59;;;;;;;1.98;1.52;;;17.90;99.90;;;;;;5018856;28;20228;-76
2021/07/14 04:41:27;;;;;;;1.52;1.42;;;17.80;99.90;;;;;;5022580;28;20266;-76
2021/07/14 04:43:56;;;;;;;1.85;1.67;;;17.70;99.90;;;;;;5023837;28;20251;-76
2021/07/14 04:46:23;;;;;;;2.03;1.70;;;17.80;99.90;;;;;;5025126;28;20227;-76
2021/07/14 04:48:51;;;;;;;1.77;1.67;;;17.80;99.90;;;;;;5018006;28;20224;-75
2021/07/14 04:51:18;;;;;;;1.60;1.50;;;17.90;99.90;;;;;;5020149;28;20575;-75
2021/07/14 04:53:45;;;;;;;1.80;1.70;;;18.00;99.90;;;;;;5018646;28;20858;-76
2021/07/14 04:56:16;;;;;;;2.13;1.50;;;18.10;99.90;;;;;;5019633;28;20239;-75
2021/07/14 04:58:43;;;;;;;1.60;1.50;;;18.30;99.90;;;;;;5019302;28;20660;-76
2021/07/14 05:01:13;;;;;;;2.88;1.55;;;18.40;99.90;;;;;;5023667;28;20234;-76
2021/07/14 05:03:40;;;;;;;2.40;1.73;;;18.50;99.90;;;;;;5022315;28;20341;-75
2021/07/14 05:06:08;;;;;;;1.92;1.80;;;18.60;99.90;;;;;;5027446;28;20227;-76
2021/07/14 05:08:35;;;;;;;2.10;1.90;;;18.70;99.90;;;;;;5024293;28;20219;-76
2021/07/14 05:11:02;;;;;;;2.05;1.90;;;18.70;99.90;;;;;;5021087;28;20227;-75
2021/07/14 05:13:29;;;;;;;1.70;1.60;;;18.70;99.90;;;;;;5023149;28;20270;-74
2021/07/14 05:15:56;;;;;;;2.85;1.80;;;18.60;99.90;;;;;;5022953;28;20220;-75
2021/07/14 05:18:23;;;;;;;3.53;1.55;;;18.60;99.90;;;;;;5025520;28;20278;-74
2021/07/14 05:20:50;;;;;;;2.42;1.70;;;18.70;99.90;;;;;;5022579;28;20618;-75
2021/07/14 05:23:19;;;;;;;2.78;1.90;;;18.80;99.90;;;;;;5024808;28;20231;-75
2021/07/14 05:25:46;;;;;;;1.80;1.70;;;19.10;99.90;;;;;;5017924;28;20215;-75
2021/07/14 05:28:13;;;;;;;2.20;1.75;;;19.40;99.90;;;;;;5025608;28;20579;-75
2021/07/14 05:30:40;;;;;;;2.28;2.08;;;19.60;99.90;;;;;;5020939;28;20634;-75
2021/07/14 05:33:07;;;;;;;1.77;1.67;;;19.30;99.90;;;;;;5026114;28;20704;-75
2021/07/14 05:35:35;;;;;;;2.05;1.77;;;19.20;99.90;;;;;;5022494;28;20274;-75
2021/07/14 05:38:02;;;;;;;1.60;1.50;;;19.10;99.90;;;;;;5026412;28;20219;-75
2021/07/14 05:40:30;;;;;;;1.80;1.70;;;19.30;99.90;;;;;;5008939;28;20285;-75
2021/07/14 05:42:58;;;;;;;1.88;1.77;;;19.70;99.90;;;;;;5021757;28;20289;-75
2021/07/14 05:45:25;;;;;;;1.55;1.45;;;20.00;99.90;;;;;;5021204;28;20219;-75
2021/07/14 05:47:52;;;;;;;1.75;1.65;;;20.10;99.90;;;;;;5022762;28;20223;-75
2021/07/14 05:50:19;;;;;;;1.50;1.40;;;20.20;99.90;;;;;;5024539;28;20234;-75
2021/07/14 05:52:46;;;;;;;2.42;1.70;;;20.30;99.90;;;;;;5022537;28;20223;-75
2021/07/14 05:55:13;;;;;;;1.50;1.40;;;20.40;99.90;;;;;;5026482;28;20220;-75
2021/07/14 05:57:42;;;;;;;1.50;1.40;;;20.40;99.90;;;;;;5028078;28;20717;-75
2021/07/14 06:00:10;;;;;;;1.40;1.30;;;20.40;99.90;;;;;;5030143;28;20223;-74
2021/07/14 06:02:37;;;;;;;1.52;1.42;;;20.40;99.90;;;;;;5029469;28;20223;-75
2021/07/14 06:05:05;;;;;;;1.60;1.50;;;20.30;99.90;;;;;;5023878;28;20231;-75
2021/07/14 06:07:33;;;;;;;2.42;1.80;;;20.20;99.90;;;;;;5024987;28;20231;-75
2021/07/14 06:10:00;;;;;;;1.80;1.70;;;20.20;99.90;;;;;;5025105;28;20347;-75
2021/07/14 06:12:27;;;;;;;2.30;1.70;;;20.00;99.90;;;;;;5027771;28;20709;-76
2021/07/14 06:14:55;;;;;;;1.75;1.65;;;19.80;99.90;;;;;;5025577;28;20219;-75
2021/07/14 06:17:22;;;;;;;1.65;1.45;;;19.70;99.90;;;;;;5016408;28;20756;-75
2021/07/14 06:19:49;;;;;;;1.80;1.50;;;19.70;99.90;;;;;;5019246;28;20721;-75
2021/07/14 06:22:16;;;;;;;1.92;1.65;;;19.80;99.90;;;;;;5024588;28;20227;-75
2021/07/14 06:24:43;;;;;;;1.70;1.60;;;19.80;99.90;;;;;;5027325;28;20227;-76
2021/07/14 06:27:11;;;;;;;2.30;1.83;;;19.90;99.90;;;;;;5021545;28;20394;-75
2021/07/14 06:29:39;;;;;;;1.75;1.50;;;20.00;99.90;;;;;;5026990;28;20227;-75
2021/07/14 06:32:08;;;;;;;1.92;1.73;;;19.80;99.90;;;;;;5018689;28;20304;-75
2021/07/14 06:34:35;;;;;;;1.60;1.50;;;19.60;99.90;;;;;;5017079;28;20661;-76
2021/07/14 06:37:02;;;;;;;1.52;1.42;;;19.50;99.90;;;;;;5022288;28;20223;-75
2021/07/14 06:39:29;;;;;;;2.47;1.58;;;19.70;99.90;;;;;;5027101;28;20228;-75
2021/07/14 06:41:56;;;;;;;1.92;1.73;;;20.00;99.90;;;;;;5027576;28;20273;-75
2021/07/14 06:44:23;;;;;;;1.38;1.27;;;20.30;99.90;;;;;;5018743;28;20219;-75
2021/07/14 06:46:50;;;;;;;1.63;1.52;;;20.40;99.90;;;;;;5022255;28;20219;-76
2021/07/14 06:49:18;;;;;;;1.40;1.30;;;20.30;99.90;;;;;;5019419;28;20224;-76
2021/07/14 06:51:45;;;;;;;2.08;1.83;;;20.00;99.90;;;;;;5019110;28;20227;-76
2021/07/14 06:54:12;;;;;;;1.70;1.60;;;19.70;99.90;;;;;;5017331;28;20605;-75
2021/07/14 06:56:40;;;;;;;1.58;1.48;;;19.50;99.90;;;;;;5015120;28;20223;-76
2021/07/14 06:59:07;;;;;;;2.00;1.85;;;19.50;99.90;;;;;;5020211;28;20697;-76
2021/07/14 07:01:34;;;;;;;2.13;1.80;;;19.30;99.90;;;;;;5019412;28;20297;-75
2021/07/14 07:04:01;;;;;;;1.42;1.33;;;19.20;99.90;;;;;;5024075;28;20236;-75
2021/07/14 07:06:29;;;;;;;1.75;1.65;;;19.30;99.90;;;;;;5018849;28;20721;-75
2021/07/14 07:08:56;;;;;;;2.35;1.73;;;19.60;99.90;;;;;;5017765;28;20227;-76
2021/07/14 07:11:23;;;;;;;1.58;1.48;;;19.60;99.90;;;;;;5015475;28;20299;-76
2021/07/14 07:13:50;;;;;;;1.63;1.52;;;19.40;99.90;;;;;;5016708;28;20231;-75
2021/07/14 07:16:18;;;;;;;1.70;1.60;;;19.30;99.90;;;;;;5015987;28;20589;-76
2021/07/14 07:18:45;;;;;;;1.83;1.27;;;19.20;99.90;;;;;;5022437;28;20768;-75
2021/07/14 07:21:11;;;;;;;1.77;1.67;;;19.20;99.90;;;;;;5024442;28;20298;-75
2021/07/14 07:23:40;;;;;;;1.65;1.55;;;19.30;99.90;;;;;;5028251;28;20782;-75
2021/07/14 07:26:07;;;;;;;3.45;1.85;;;19.30;99.90;;;;;;5015536;28;20242;-76
2021/07/14 07:28:39;;;;;;;1.90;1.80;;;19.40;99.90;;;;;;5023791;28;20282;-76
2021/07/14 07:31:09;;;;;;;2.47;2.03;;;19.40;99.90;;;;;;5014899;28;20228;-75
2021/07/14 07:33:36;;;;;;;2.17;1.73;;;19.30;99.90;;;;;;5019350;28;20274;-75
2021/07/14 07:36:04;;;;;;;1.98;1.67;;;19.20;99.90;;;;;;5018895;28;20619;-75
2021/07/14 07:38:32;;;;;;;2.25;1.98;;;19.10;99.90;;;;;;5024970;28;20596;-76
2021/07/14 07:41:00;;;;;;;2.35;1.85;;;19.00;99.90;;;;;;5020600;28;20235;-75
2021/07/14 07:43:28;;;;;;;4.10;1.80;;;18.90;99.90;;;;;;5026084;28;20832;-76
2021/07/14 07:45:55;;;;;;;1.92;1.83;;;18.90;99.90;;;;;;5024275;28;20302;-75
2021/07/14 07:48:23;;;;;;;1.92;1.83;;;18.90;99.90;;;;;;5020478;28;20227;-75
2021/07/14 07:50:50;;;;;;;2.20;1.65;;;18.90;99.90;;;;;;5021192;28;20222;-76
2021/07/14 07:53:18;;;;;;;1.55;1.45;;;18.90;99.90;;;;;;5018575;28;20231;-76
2021/07/14 07:55:46;;;;;;;1.60;1.35;;;19.00;99.90;;;;;;5029208;28;21726;-76
2021/07/14 07:58:15;;;;;;;1.60;1.50;;;19.00;99.90;;;;;;5024893;28;20303;-74
2021/07/14 08:00:42;;;;;;;2.35;1.55;;;18.90;99.90;;;;;;5027517;28;20250;-75
2021/07/14 08:03:09;;;;;;;1.38;1.27;;;18.90;99.90;;;;;;5021757;28;20219;-75
2021/07/14 08:05:36;;;;;;;1.35;1.25;;;19.00;99.90;;;;;;5014992;28;20233;-75
2021/07/14 08:08:04;;;;;;;1.48;1.38;;;19.30;99.90;;;;;;5018005;28;20236;-76
2021/07/14 08:10:32;;;;;;;1.33;1.30;;;19.30;99.90;;;;;;5017369;28;20216;-76
2021/07/14 08:12:59;;;;;;;1.90;1.63;;;19.30;99.90;;;;;;5022078;28;20235;-75
2021/07/14 08:15:28;;;;;;;1.50;1.40;;;19.30;99.90;;;;;;5022092;28;20916;-76
2021/07/14 08:17:55;;;;;;;1.67;1.58;;;19.10;99.90;;;;;;5018657;28;20219;-76
2021/07/14 08:20:23;;;;;;;1.70;1.60;;;19.00;99.90;;;;;;5026617;28;20219;-77
2021/07/14 08:22:50;;;;;;;2.08;1.40;;;18.90;99.90;;;;;;5022640;28;20289;-78
2021/07/14 08:25:18;;;;;;;2.65;1.52;;;18.90;99.90;;;;;;5023220;28;20227;-76
2021/07/14 08:27:45;;;;;;;2.22;1.77;;;18.80;99.90;;;;;;5019604;28;20221;-76
2021/07/14 08:30:14;;;;;;;1.73;1.63;;;19.00;99.90;;;;;;5025108;28;20219;-76
2021/07/14 08:32:43;;;;;;;2.35;1.42;;;19.30;99.90;;;;;;5020868;28;21047;-75
2021/07/14 08:35:12;;;;;;;2.10;1.50;;;19.60;99.90;;;;;;5022416;28;20287;-75
2021/07/14 08:37:39;;;;;;;1.92;1.63;;;19.80;99.90;;;;;;5022041;28;20222;-77
2021/07/14 08:40:09;;;;;;;1.70;1.60;;;19.80;99.90;;;;;;5026437;28;20614;-77
2021/07/14 08:42:39;;;;;;;1.77;1.67;;;19.80;99.90;;;;;;5022388;28;20328;-76
2021/07/14 08:45:08;;;;;;;2.58;2.00;;;20.00;99.90;;;;;;5019913;28;20254;-76
2021/07/14 08:47:35;;;;;;;2.17;1.73;;;20.30;99.90;;;;;;5035323;28;20223;-75
2021/07/14 08:50:06;;;;;;;1.95;1.85;;;20.20;99.90;;;;;;5024056;28;20223;-76
2021/07/14 08:52:33;;;;;;;2.15;1.80;;;20.10;99.90;;;;;;5020534;28;20246;-76
2021/07/14 08:55:01;;;;;;;2.80;1.70;;;20.00;99.90;;;;;;5024107;28;20211;-75
2021/07/14 08:57:28;;;;;;;2.25;1.60;;;20.00;99.90;;;;;;5026078;28;20218;-76
2021/07/14 08:59:55;;;;;;;1.50;1.40;;;20.10;99.90;;;;;;5024050;28;20273;-76
2021/07/14 09:02:22;;;;;;;2.75;1.60;;;20.20;99.90;;;;;;5024673;28;20227;-76
2021/07/14 09:04:49;;;;;;;2.03;1.75;;;20.30;99.90;;;;;;5018665;28;20317;-75
2021/07/14 09:07:17;;;;;;;2.85;1.67;;;20.40;99.90;;;;;;5026520;28;20277;-76
2021/07/14 09:09:44;;;;;;;2.70;1.63;;;20.40;99.90;;;;;;5026644;28;20228;-76
2021/07/14 09:12:13;;;;;;;5.97;1.83;;;20.40;99.90;;;;;;5025050;28;20234;-77
2021/07/14 09:14:41;;;;;;;2.47;2.28;;;20.50;99.90;;;;;;5024169;28;20246;-75
2021/07/14 09:17:25;;;;;;;1.85;1.75;;;20.70;99.90;;;;;;5021587;28;20275;-78
2021/07/14 09:19:54;;;;;;;1.50;1.40;;;21.10;99.90;;;;;;5024231;28;20219;-76
2021/07/14 09:22:24;;;;;;;1.65;1.52;;;21.80;99.90;;;;;;5017190;28;20281;-76
2021/07/14 09:24:56;;;;;;;1.73;1.63;;;22.70;99.90;;;;;;5027624;28;20269;-75
2021/07/14 09:27:27;;;;;;;2.08;1.70;;;22.90;99.90;;;;;;5028132;28;20239;-76
2021/07/14 09:30:06;;;;;;;1.73;1.63;;;22.50;99.90;;;;;;5025593;28;20313;-75
2021/07/14 09:32:47;;;;;;;1.83;1.70;;;22.30;99.90;;;;;;5025308;28;20227;-76
2021/07/14 09:35:24;;;;;;;3.17;2.03;;;22.50;99.90;;;;;;5021149;28;20299;-76
2021/07/14 09:37:53;;;;;;;3.33;1.50;;;22.20;99.90;;;;;;5029444;28;20235;-78
2021/07/14 09:40:21;;;;;;;1.40;1.30;;;21.80;99.90;;;;;;5030081;28;20728;-77
2021/07/14 09:43:01;;;;;;;1.58;1.48;;;21.40;99.90;;;;;;5025593;28;20231;-76
2021/07/14 09:45:48;;;;;;;1.77;1.60;;;21.10;99.90;;;;;;5025813;28;20219;-76
2021/07/14 09:48:19;;;;;;;1.70;1.60;;;21.00;99.90;;;;;;5018097;28;20215;-77
2021/07/14 09:50:48;;;;;;;2.35;1.70;;;20.90;99.90;;;;;;5021783;28;20231;-77
2021/07/14 09:53:20;;;;;;;1.63;1.52;;;20.80;99.90;;;;;;5025459;28;20254;-77
2021/07/14 09:55:49;;;;;;;2.67;1.75;;;20.60;99.90;;;;;;5026383;28;20219;-77
2021/07/14 09:58:18;;;;;;;1.85;1.75;;;20.60;99.90;;;;;;5026127;28;20227;-78
2021/07/14 10:00:50;;;;;;;1.70;1.60;;;20.70;99.90;;;;;;5022472;28;20227;-77
2021/07/14 10:03:19;;;;;;;2.55;1.70;;;20.70;99.90;;;;;;5020370;28;20282;-76
2021/07/14 10:05:47;;;;;;;1.65;1.55;;;20.70;99.90;;;;;;5026691;28;20788;-76
2021/07/14 10:08:21;;;;;;;2.58;1.45;;;20.70;99.90;;;;;;5022874;28;20220;-76
2021/07/14 10:10:50;;;;;;;2.67;2.15;;;20.60;99.90;;;;;;5023181;28;20761;-76
2021/07/14 10:13:21;;;;;;;1.70;1.60;;;20.50;99.90;;;;;;5020339;28;20228;-76
2021/07/14 10:16:01;;;;;;;2.38;1.52;;;20.40;99.90;;;;;;5024281;28;20567;-77
2021/07/14 10:18:28;;;;;;;2.05;1.42;;;20.60;99.90;;;;;;5022635;28;20304;-76
2021/07/14 10:20:55;;;;;;;2.30;1.58;;;20.80;99.90;;;;;;5021490;28;20235;-76
2021/07/14 10:23:24;;;;;;;1.85;1.73;;;20.80;99.90;;;;;;5019325;28;20219;-75
2021/07/14 10:25:52;;;;;;;1.65;1.55;;;20.70;99.90;;;;;;5022452;28;20297;-76
2021/07/14 10:28:21;;;;;;;2.17;1.80;;;20.50;99.90;;;;;;5021175;28;20244;-76
2021/07/14 10:30:51;;;;;;;2.30;1.88;;;20.30;99.90;;;;;;5023037;28;20706;-76
2021/07/14 10:33:19;;;;;;;2.15;2.00;;;20.10;99.90;;;;;;5021627;28;20234;-76
2021/07/14 10:35:51;;;;;;;2.92;2.35;;;20.00;99.90;;;;;;5019901;28;20219;-76
2021/07/14 10:38:20;;;;;;;4.07;3.20;;;19.90;99.90;;;;;;5023650;28;21703;-76
2021/07/14 10:40:50;;;;;;;7.05;3.90;;;19.90;99.90;;;;;;5020430;28;20240;-75
2021/07/14 10:43:19;;;;;;;4.25;3.25;;;20.00;99.90;;;;;;5020412;28;20309;-75
2021/07/14 10:45:48;;;;;;;3.35;2.72;;;20.20;99.90;;;;;;5025186;28;20211;-76
2021/07/14 10:48:17;;;;;;;2.95;2.63;;;20.10;99.90;;;;;;5028519;28;20306;-76
2021/07/14 10:50:44;;;;;;;2.72;2.20;;;20.00;99.90;;;;;;5024752;28;20314;-77
2021/07/14 10:53:13;;;;;;;2.15;1.95;;;20.10;99.90;;;;;;5026228;28;20218;-76
2021/07/14 10:55:41;;;;;;;2.30;2.10;;;20.20;99.90;;;;;;5024699;28;20298;-76
2021/07/14 10:58:12;;;;;;;2.63;2.25;;;20.20;99.90;;;;;;5027367;28;20219;-77
2021/07/14 11:00:41;;;;;;;2.55;2.35;;;20.00;99.90;;;;;;5024565;28;20223;-76
2021/07/14 11:03:28;;;;;;;2.63;2.40;;;19.80;99.90;;;;;;5025505;28;20898;-76
2021/07/14 11:05:56;;;;;;;2.50;2.22;;;19.70;99.90;;;;;;5023981;28;20238;-76
2021/07/14 11:08:38;;;;;;;2.85;1.90;;;19.60;99.90;;;;;;5022293;28;20220;-76
2021/07/14 11:11:06;;;;;;;2.40;1.77;;;19.70;99.90;;;;;;5025933;28;20235;-75
2021/07/14 11:13:37;;;;;;;2.67;2.47;;;19.80;99.90;;;;;;5024905;28;20243;-76
2021/07/14 11:16:28;;;;;;;1.95;1.70;;;20.00;99.90;;;;;;5023365;28;20247;-77
2021/07/14 11:19:04;;;;;;;2.10;1.90;;;20.10;99.90;;;;;;5024079;28;20303;-77
2021/07/14 11:22:04;;;;;;;2.30;2.10;;;20.00;99.90;;;;;;5040088;28;20231;-76
2021/07/14 11:24:59;;;;;;;2.60;2.15;;;19.60;99.90;;;;;;5022728;28;20223;-78
2021/07/14 11:27:54;;;;;;;4.15;2.25;;;19.10;99.90;;;;;;5024966;28;20314;-77
2021/07/14 11:30:49;;;;;;;1.88;1.77;;;19.00;99.90;;;;;;5024642;28;20215;-77
2021/07/14 11:33:23;;;;;;;2.25;2.08;;;19.20;99.90;;;;;;5024805;28;20211;-78
2021/07/14 11:35:57;;;;;;;1.98;1.88;;;19.40;99.90;;;;;;5028110;28;20228;-77
2021/07/14 11:38:26;;;;;;;1.98;1.80;;;19.40;99.90;;;;;;5026521;28;20646;-77
2021/07/14 11:40:56;;;;;;;2.28;2.08;;;19.20;99.90;;;;;;5031426;28;20768;-77
2021/07/14 11:43:25;;;;;;;2.85;2.03;;;18.70;99.90;;;;;;5025320;28;20230;-77
2021/07/14 11:45:56;;;;;;;2.10;1.98;;;18.50;99.90;;;;;;5028777;28;20219;-76
2021/07/14 11:48:30;;;;;;;2.70;1.70;;;18.60;99.90;;;;;;5024612;28;20219;-77
2021/07/14 11:50:59;;;;;;;1.90;1.80;;;18.60;99.90;;;;;;5026256;28;20234;-77
2021/07/14 11:53:37;;;;;;;2.17;1.95;;;18.70;99.90;;;;;;5024651;28;20850;-77
2021/07/14 11:56:07;;;;;;;1.92;1.75;;;18.50;99.90;;;;;;5023526;28;20234;-77
2021/07/14 11:58:54;;;;;;;2.17;1.73;;;18.20;99.90;;;;;;5021767;28;20672;-76
2021/07/14 12:01:55;;;;;;;1.95;1.67;;;18.10;99.90;;;;;;5014331;28;20227;-77
2021/07/14 12:04:24;;;;;;;1.92;1.50;;;18.00;99.90;;;;;;5020323;28;20749;-76
2021/07/14 12:06:53;;;;;;;3.40;2.03;;;18.30;99.90;;;;;;5023891;28;20298;-77
2021/07/14 12:09:40;;;;;;;9.40;1.85;;;18.60;99.90;;;;;;5022885;28;20301;-76
2021/07/14 12:12:15;;;;;;;1.88;1.70;;;18.80;99.90;;;;;;5026049;28;20734;-77
2021/07/14 12:14:43;;;;;;;3.15;1.92;;;19.00;99.90;;;;;;5024562;28;20215;-77
2021/07/14 12:17:14;;;;;;;1.67;1.58;;;19.30;99.90;;;;;;5017661;28;20215;-77
2021/07/14 12:19:43;;;;;;;1.75;1.50;;;19.40;99.90;;;;;;5020410;28;20222;-77
2021/07/14 12:22:12;;;;;;;1.63;1.48;;;19.10;99.90;;;;;;5016731;28;20228;-77
2021/07/14 12:24:42;;;;;;;2.03;1.50;;;18.40;99.90;;;;;;5016596;28;20223;-77
2021/07/14 12:27:13;;;;;;;1.70;1.60;;;17.80;99.90;;;;;;5019154;28;20240;-77
2021/07/14 12:29:41;;;;;;;2.50;1.50;;;17.50;99.90;;;;;;5019767;28;20228;-79
2021/07/14 12:32:09;;;;;;;1.50;1.40;;;17.30;99.90;;;;;;5025943;28;20228;-79
2021/07/14 12:34:38;;;;;;;1.52;1.40;;;17.30;99.90;;;;;;5012752;28;20694;-76
2021/07/14 12:37:07;;;;;;;1.73;1.50;;;17.50;99.90;;;;;;5023098;28;20697;-78
2021/07/14 12:39:37;;;;;;;1.30;1.20;;;18.00;99.90;;;;;;5021829;28;20306;-77
2021/07/14 12:42:07;;;;;;;1.40;1.30;;;18.40;99.90;;;;;;5027720;28;20223;-77
2021/07/14 12:44:35;;;;;;;1.88;1.42;;;18.70;99.90;;;;;;5018371;28;20236;-79
2021/07/14 12:47:13;;;;;;;1.23;1.10;;;18.90;99.90;;;;;;5025716;28;20220;-78
2021/07/14 12:49:42;;;;;;;1.40;1.25;;;19.10;99.90;;;;;;5021680;28;20652;-78
2021/07/14 12:52:11;;;;;;;2.63;1.42;;;19.20;99.90;;;;;;5020910;28;20219;-78
2021/07/14 12:54:39;;;;;;;1.40;1.30;;;19.40;99.90;;;;;;5018588;28;20220;-77
2021/07/14 12:57:16;;;;;;;1.30;1.20;;;19.60;99.90;;;;;;5022344;28;20228;-77
2021/07/14 12:59:58;;;;;;;1.67;1.10;;;19.40;99.90;;;;;;5016584;28;20278;-77
2021/07/14 13:02:28;;;;;;;1.50;1.40;;;19.30;99.90;;;;;;5017852;28;20243;-76
2021/07/14 13:05:01;;;;;;;4.32;1.33;;;19.20;99.90;;;;;;5031767;28;20223;-77
2021/07/14 13:07:30;;;;;;;2.75;1.42;;;19.20;99.90;;;;;;5013987;28;20259;-77
2021/07/14 13:10:00;;;;;;;2.55;1.25;;;19.70;99.90;;;;;;5019044;28;20219;-78